Time;durP1;ratioP1;P1;durP2;ratioP2;P2;SDS_P1;SDS_P2;PMS_P1;PMS_P2;Temp;Humidity;BMP_temperature;BMP_pressure;BME280_temperature;BME280_humidity;BME280_pressure;Samples;Min_cycle;Max_cycle;Signal;HPM_P1;HPM_P2
2022/10/15 00:00:05;;;;;;;;;;;16.50;99.90;;;;;;5015858;28;19981;-79
2022/10/15 00:02:31;;;;;;;;;;;16.50;99.90;;;;;;5014540;28;20435;-79
2022/10/15 00:04:57;;;;;;;;;;;16.50;99.90;;;;;;5014292;28;20000;-79
2022/10/15 00:07:23;;;;;;;;;;;16.50;99.90;;;;;;5015628;28;19909;-80
2022/10/15 00:09:48;;;;;;;;;;;16.50;99.90;;;;;;5014340;28;19917;-79
2022/10/15 00:12:14;;;;;;;;;;;16.50;99.90;;;;;;5015774;28;20376;-79
2022/10/15 00:14:39;;;;;;;;;;;16.50;99.90;;;;;;5014178;28;19916;-79
2022/10/15 00:17:05;;;;;;;;;;;16.50;99.90;;;;;;5015760;28;19941;-79
2022/10/15 00:19:30;;;;;;;;;;;16.50;99.90;;;;;;5015522;28;19910;-79
2022/10/15 00:21:56;;;;;;;;;;;16.40;99.90;;;;;;5015003;28;19914;-79
2022/10/15 00:24:21;;;;;;;;;;;16.40;99.90;;;;;;5015010;28;19979;-79
2022/10/15 00:26:47;;;;;;;;;;;16.40;99.90;;;;;;5015342;28;19916;-79
2022/10/15 00:29:12;;;;;;;;;;;16.30;99.90;;;;;;5015364;28;20016;-79
2022/10/15 00:31:38;;;;;;;;;;;16.30;99.90;;;;;;5015372;28;19916;-79
2022/10/15 00:34:03;;;;;;;;;;;16.30;99.90;;;;;;5014964;28;19992;-79
2022/10/15 00:36:30;;;;;;;;;;;16.30;99.90;;;;;;5015068;28;20279;-79
2022/10/15 00:38:56;;;;;;;;;;;16.30;99.90;;;;;;5014465;28;19909;-79
2022/10/15 00:41:29;;;;;;;;;;;16.30;99.90;;;;;;5013856;28;19919;-79
2022/10/15 00:43:56;;;;;;;;;;;16.40;99.90;;;;;;5014767;28;20000;-79
2022/10/15 00:46:28;;;;;;;;;;;16.30;99.90;;;;;;5015029;28;19915;-79
2022/10/15 00:48:55;;;;;;;;;;;16.30;99.90;;;;;;5015205;28;19910;-80
2022/10/15 00:51:21;;;;;;;;;;;16.30;99.90;;;;;;5013824;28;19910;-79
2022/10/15 00:53:47;;;;;;;;;;;16.30;99.90;;;;;;5014632;28;20363;-79
2022/10/15 00:56:14;;;;;;;;;;;16.20;99.90;;;;;;5014977;28;19910;-79
2022/10/15 00:58:40;;;;;;;;;;;16.20;99.90;;;;;;5015041;28;19910;-79
2022/10/15 01:01:06;;;;;;;;;;;16.20;99.90;;;;;;5014974;28;20363;-79
2022/10/15 01:03:34;;;;;;;;;;;16.20;99.90;;;;;;5014243;28;19910;-79
2022/10/15 01:05:59;;;;;;;;;;;16.20;99.90;;;;;;5014609;28;19909;-79
2022/10/15 01:08:25;;;;;;;;;;;16.10;99.90;;;;;;5014596;28;19913;-79
2022/10/15 01:10:56;;;;;;;;;;;16.10;99.90;;;;;;5014561;28;19910;-79
2022/10/15 01:13:21;;;;;;;;;;;16.10;99.90;;;;;;5014465;28;19914;-79
2022/10/15 01:16:01;;;;;;;;;;;16.10;99.90;;;;;;5014554;28;20120;-79
2022/10/15 01:18:37;;;;;;;;;;;16.10;99.90;;;;;;5014653;28;19967;-79
2022/10/15 01:21:02;;;;;;;;;;;16.10;99.90;;;;;;5014578;28;20371;-79
2022/10/15 01:23:37;;;;;;;;;;;16.00;99.90;;;;;;5012818;28;20043;-78
2022/10/15 01:26:18;;;;;;;;;;;16.00;99.90;;;;;;5013079;28;19914;-79
2022/10/15 01:28:55;;;;;;;;;;;16.00;99.90;;;;;;5014527;28;20407;-78
2022/10/15 01:31:28;;;;;;;;;;;16.00;99.90;;;;;;5014544;28;19955;-79
2022/10/15 01:34:05;;;;;;;;;;;15.90;99.90;;;;;;5014435;28;19909;-79
2022/10/15 01:36:41;;;;;;;;;;;16.00;99.90;;;;;;5014342;28;19910;-79
2022/10/15 01:39:13;;;;;;;;;;;15.90;99.90;;;;;;5014278;28;19972;-79
2022/10/15 01:41:59;;;;;;;;;;;15.90;99.90;;;;;;5014173;28;19917;-79
2022/10/15 01:44:33;;;;;;;;;;;15.90;99.90;;;;;;5013692;28;19909;-79
2022/10/15 01:47:01;;;;;;;;;;;15.90;99.90;;;;;;5014291;28;20291;-79
2022/10/15 01:49:29;;;;;;;;;;;15.90;99.90;;;;;;5029346;28;19910;-79
2022/10/15 01:51:56;;;;;;;;;;;15.90;99.90;;;;;;5012799;28;19916;-79
2022/10/15 01:54:23;;;;;;;;;;;16.00;99.90;;;;;;5012618;28;19909;-80
2022/10/15 01:56:50;;;;;;;;;;;16.00;99.90;;;;;;5012130;28;19913;-79
2022/10/15 01:59:17;;;;;;;;;;;16.00;99.90;;;;;;5013948;28;19978;-79
2022/10/15 02:01:43;;;;;;;;;;;16.00;99.90;;;;;;5012613;28;19919;-79
2022/10/15 02:04:20;;;;;;;;;;;16.00;99.90;;;;;;5012477;28;19909;-79
2022/10/15 02:06:48;;;;;;;;;;;16.10;99.90;;;;;;5013783;28;20059;-79
2022/10/15 02:09:16;;;;;;;;;;;16.10;99.90;;;;;;5012935;28;19918;-79
2022/10/15 02:11:47;;;;;;;;;;;16.00;99.90;;;;;;5013775;28;19917;-79
2022/10/15 02:14:16;;;;;;;;;;;16.10;99.90;;;;;;5011666;28;19956;-79
2022/10/15 02:17:02;;;;;;;;;;;16.00;99.90;;;;;;5013873;28;19956;-79
2022/10/15 02:19:50;;;;;;;;;;;16.10;99.90;;;;;;5014270;28;19969;-79
2022/10/15 02:22:25;;;;;;;;;;;16.00;99.90;;;;;;5003599;28;19953;-79
2022/10/15 02:25:09;;;;;;;;;;;16.10;99.90;;;;;;5013708;28;19999;-79
2022/10/15 02:27:36;;;;;;;;;;;16.10;99.90;;;;;;5021270;28;19951;-79
2022/10/15 02:30:03;;;;;;;;;;;16.10;99.90;;;;;;5014506;28;19909;-79
2022/10/15 02:32:30;;;;;;;;;;;16.10;99.90;;;;;;5028883;28;20370;-79
2022/10/15 02:34:55;;;;;;;;;;;16.10;99.90;;;;;;5028710;28;20017;-79
2022/10/15 02:37:23;;;;;;;;;;;16.10;99.90;;;;;;5013241;28;19941;-79
2022/10/15 02:39:48;;;;;;;;;;;16.00;99.90;;;;;;5012236;28;19913;-78
2022/10/15 02:42:15;;;;;;;;;;;16.10;99.90;;;;;;5013399;28;20292;-79
2022/10/15 02:44:41;;;;;;;;;;;16.00;99.90;;;;;;5011774;28;19909;-79
2022/10/15 02:47:06;;;;;;;;;;;16.00;99.90;;;;;;5012961;28;19971;-79
2022/10/15 02:49:32;;;;;;;;;;;16.00;99.90;;;;;;5013078;28;19916;-79
2022/10/15 02:51:58;;;;;;;;;;;16.00;99.90;;;;;;5013399;28;19909;-79
2022/10/15 02:54:23;;;;;;;;;;;16.00;99.90;;;;;;5011628;28;19932;-79
2022/10/15 02:56:48;;;;;;;;;;;16.00;99.90;;;;;;5013245;28;20368;-79
2022/10/15 02:59:14;;;;;;;;;;;16.00;99.90;;;;;;5012153;28;19996;-79
2022/10/15 03:01:39;;;;;;;;;;;16.10;99.90;;;;;;5028343;28;20330;-79
2022/10/15 03:04:05;;;;;;;;;;;16.10;99.90;;;;;;5013490;28;19956;-79
2022/10/15 03:06:30;;;;;;;;;;;16.00;99.90;;;;;;5011574;28;19910;-80
2022/10/15 03:08:56;;;;;;;;;;;16.10;99.90;;;;;;5014987;28;20367;-79
2022/10/15 03:11:21;;;;;;;;;;;16.10;99.90;;;;;;5017221;28;19971;-79
2022/10/15 03:13:47;;;;;;;;;;;16.00;99.90;;;;;;5017150;28;19910;-79
2022/10/15 03:16:12;;;;;;;;;;;16.00;99.90;;;;;;5016982;28;19916;-81
2022/10/15 03:18:38;;;;;;;;;;;16.00;99.90;;;;;;5017035;28;19910;-81
2022/10/15 03:21:04;;;;;;;;;;;16.00;99.90;;;;;;5016802;28;20347;-81
2022/10/15 03:23:29;;;;;;;;;;;16.00;99.90;;;;;;5016818;28;20295;-78
2022/10/15 03:25:55;;;;;;;;;;;16.00;99.90;;;;;;5017211;28;20028;-78
2022/10/15 03:28:21;;;;;;;;;;;16.00;99.90;;;;;;5016901;28;19916;-80
2022/10/15 03:30:47;;;;;;;;;;;16.00;99.90;;;;;;5017057;28;19935;-80
2022/10/15 03:33:12;;;;;;;;;;;16.00;99.90;;;;;;5016312;28;20004;-80
2022/10/15 03:35:38;;;;;;;;;;;16.00;99.90;;;;;;5016900;28;19913;-80
2022/10/15 03:38:03;;;;;;;;;;;16.00;99.90;;;;;;5016991;28;19909;-80
2022/10/15 03:40:29;;;;;;;;;;;16.00;99.90;;;;;;5015164;28;20012;-80
2022/10/15 03:42:55;;;;;;;;;;;16.00;99.90;;;;;;5014946;28;20383;-80
2022/10/15 03:45:21;;;;;;;;;;;16.00;99.90;;;;;;5031773;28;19960;-81
2022/10/15 03:47:46;;;;;;;;;;;16.00;99.90;;;;;;5016402;28;19913;-80
2022/10/15 03:50:12;;;;;;;;;;;16.00;99.90;;;;;;5014624;28;19916;-80
2022/10/15 03:52:38;;;;;;;;;;;16.00;99.90;;;;;;5015046;28;19960;-81
2022/10/15 03:55:04;;;;;;;;;;;16.00;99.90;;;;;;5014837;28;20393;-80
2022/10/15 03:57:29;;;;;;;;;;;16.00;99.90;;;;;;5031572;28;19916;-80
2022/10/15 03:59:55;;;;;;;;;;;16.00;99.90;;;;;;5014919;28;19918;-80
2022/10/15 04:02:20;;;;;;;;;;;16.00;99.90;;;;;;5015954;28;19913;-80
2022/10/15 04:04:46;;;;;;;;;;;16.00;99.90;;;;;;5015921;28;19935;-80
2022/10/15 04:07:11;;;;;;;;;;;16.10;99.90;;;;;;5014998;28;20283;-80
2022/10/15 04:09:37;;;;;;;;;;;16.10;99.90;;;;;;5031431;28;19996;-81
2022/10/15 04:12:02;;;;;;;;;;;16.00;99.90;;;;;;5015929;28;20252;-80
2022/10/15 04:14:28;;;;;;;;;;;16.00;99.90;;;;;;5016240;28;19910;-80
2022/10/15 04:16:54;;;;;;;;;;;16.00;99.90;;;;;;5015690;28;20272;-80
2022/10/15 04:19:20;;;;;;;;;;;16.00;99.90;;;;;;5015532;28;20017;-80
2022/10/15 04:21:45;;;;;;;;;;;16.00;99.90;;;;;;5015883;28;20356;-80
2022/10/15 04:24:10;;;;;;;;;;;16.00;99.90;;;;;;5014100;28;19917;-80
2022/10/15 04:26:36;;;;;;;;;;;16.00;99.90;;;;;;5016085;28;19916;-80
2022/10/15 04:29:02;;;;;;;;;;;16.00;99.90;;;;;;5015988;28;19910;-80
2022/10/15 04:31:27;;;;;;;;;;;16.00;99.90;;;;;;5016190;28;19955;-80
2022/10/15 04:33:52;;;;;;;;;;;16.00;99.90;;;;;;5015672;28;19909;-81
2022/10/15 04:36:18;;;;;;;;;;;16.00;99.90;;;;;;5015612;28;19910;-81
2022/10/15 04:38:43;;;;;;;;;;;16.10;99.90;;;;;;5015850;28;19975;-80
2022/10/15 04:41:10;;;;;;;;;;;16.10;99.90;;;;;;5015593;28;19913;-80
2022/10/15 04:43:37;;;;;;;;;;;16.00;99.90;;;;;;5015492;28;19992;-81
2022/10/15 04:46:04;;;;;;;;;;;15.90;99.90;;;;;;5015823;28;19909;-80
2022/10/15 04:48:30;;;;;;;;;;;15.90;99.90;;;;;;5030711;28;19910;-81
2022/10/15 04:51:05;;;;;;;;;;;15.90;99.90;;;;;;5014532;28;19956;-80
2022/10/15 04:53:31;;;;;;;;;;;15.80;99.90;;;;;;5015218;28;20008;-81
2022/10/15 04:56:04;;;;;;;;;;;15.80;99.90;;;;;;5013859;28;19949;-81
2022/10/15 04:58:30;;;;;;;;;;;15.80;99.90;;;;;;5015315;28;19909;-80
2022/10/15 05:00:58;;;;;;;;;;;15.80;99.90;;;;;;5013724;28;19969;-80
2022/10/15 05:03:23;;;;;;;;;;;15.80;99.90;;;;;;5014915;28;19956;-80
2022/10/15 05:05:49;;;;;;;;;;;15.70;99.90;;;;;;5015137;28;19909;-80
2022/10/15 05:08:14;;;;;;;;;;;15.80;99.90;;;;;;5030198;28;19913;-80
2022/10/15 05:10:39;;;;;;;;;;;15.80;99.90;;;;;;5014016;28;20391;-80
2022/10/15 05:13:05;;;;;;;;;;;15.80;99.90;;;;;;5013392;28;19988;-80
2022/10/15 05:15:30;;;;;;;;;;;15.70;99.90;;;;;;5014791;28;19949;-80
2022/10/15 05:17:56;;;;;;;;;;;15.70;99.90;;;;;;5014962;28;19917;-80
2022/10/15 05:20:21;;;;;;;;;;;15.70;99.90;;;;;;5029586;28;19909;-80
2022/10/15 05:22:47;;;;;;;;;;;15.80;99.90;;;;;;5014994;28;19964;-80
2022/10/15 05:25:13;;;;;;;;;;;15.90;99.90;;;;;;5014481;28;19918;-80
2022/10/15 05:27:38;;;;;;;;;;;15.90;99.90;;;;;;5015181;28;19978;-80
2022/10/15 05:30:04;;;;;;;;;;;15.90;99.90;;;;;;5015056;28;20454;-80
2022/10/15 05:32:29;;;;;;;;;;;15.90;99.90;;;;;;5012787;28;20009;-81
2022/10/15 05:34:55;;;;;;;;;;;15.90;99.90;;;;;;5014435;28;19917;-80
2022/10/15 05:37:21;;;;;;;;;;;15.90;99.90;;;;;;5014863;28;19909;-80
2022/10/15 05:39:46;;;;;;;;;;;15.90;99.90;;;;;;5014742;28;19913;-80
2022/10/15 05:42:11;;;;;;;;;;;16.00;99.90;;;;;;5013431;28;20446;-80
2022/10/15 05:44:37;;;;;;;;;;;16.00;99.90;;;;;;5014367;28;19916;-80
2022/10/15 05:47:02;;;;;;;;;;;16.00;99.90;;;;;;5013204;28;19932;-80
2022/10/15 05:49:28;;;;;;;;;;;15.90;99.90;;;;;;5030143;28;19909;-81
2022/10/15 05:51:53;;;;;;;;;;;15.90;99.90;;;;;;5014969;28;19977;-81
2022/10/15 05:54:19;;;;;;;;;;;15.80;99.90;;;;;;5014349;28;20387;-80
2022/10/15 05:56:45;;;;;;;;;;;15.80;99.90;;;;;;5014367;28;19957;-80
2022/10/15 05:59:10;;;;;;;;;;;15.70;99.90;;;;;;5014662;28;19933;-81
2022/10/15 06:01:36;;;;;;;;;;;15.70;99.90;;;;;;5012953;28;20000;-81
2022/10/15 06:04:02;;;;;;;;;;;15.70;99.90;;;;;;5014091;28;20001;-80
2022/10/15 06:06:27;;;;;;;;;;;15.60;99.90;;;;;;5014494;28;20347;-80
2022/10/15 06:08:53;;;;;;;;;;;15.60;99.90;;;;;;5013255;28;19917;-79
2022/10/15 06:11:19;;;;;;;;;;;15.50;99.90;;;;;;5014590;28;19909;-80
2022/10/15 06:13:45;;;;;;;;;;;15.40;99.90;;;;;;5012827;28;19913;-80
2022/10/15 06:16:12;;;;;;;;;;;15.40;99.90;;;;;;5012762;28;19916;-80
2022/10/15 06:18:37;;;;;;;;;;;15.30;99.90;;;;;;5014217;28;19909;-80
2022/10/15 06:21:03;;;;;;;;;;;15.40;99.90;;;;;;5013975;28;20407;-80
2022/10/15 06:23:29;;;;;;;;;;;15.50;99.90;;;;;;5012525;28;20036;-80
2022/10/15 06:25:55;;;;;;;;;;;15.50;99.90;;;;;;5015258;28;19944;-80
2022/10/15 06:28:20;;;;;;;;;;;15.40;99.90;;;;;;5014136;28;19916;-81
2022/10/15 06:30:46;;;;;;;;;;;15.40;99.90;;;;;;5014255;28;19910;-80
2022/10/15 06:33:12;;;;;;;;;;;15.40;99.90;;;;;;5013884;28;19909;-81
2022/10/15 06:35:39;;;;;;;;;;;15.40;99.90;;;;;;5028921;28;20397;-80
2022/10/15 06:38:04;;;;;;;;;;;15.40;99.90;;;;;;5014634;28;20004;-82
2022/10/15 06:40:30;;;;;;;;;;;15.40;99.90;;;;;;5014688;28;19976;-80
2022/10/15 06:43:06;;;;;;;;;;;15.40;99.90;;;;;;5014163;28;19964;-80
2022/10/15 06:45:32;;;;;;;;;;;15.50;99.90;;;;;;5014241;28;19996;-80
2022/10/15 06:47:58;;;;;;;;;;;15.60;99.90;;;;;;5014278;28;19944;-80
2022/10/15 06:50:23;;;;;;;;;;;15.60;99.90;;;;;;5013382;28;19914;-81
2022/10/15 06:52:49;;;;;;;;;;;15.60;99.90;;;;;;5012586;28;20429;-81
2022/10/15 06:55:14;;;;;;;;;;;15.70;99.90;;;;;;5012435;28;20408;-79
2022/10/15 06:57:40;;;;;;;;;;;15.70;99.90;;;;;;5014288;28;19960;-80
2022/10/15 07:00:05;;;;;;;;;;;15.70;99.90;;;;;;5015076;28;20540;-81
2022/10/15 07:02:33;;;;;;;;;;;15.70;99.90;;;;;;5012860;28;19935;-81
2022/10/15 07:04:59;;;;;;;;;;;15.80;99.90;;;;;;5014333;28;20279;-80
2022/10/15 07:07:24;;;;;;;;;;;15.90;99.90;;;;;;5012656;28;19914;-82
2022/10/15 07:09:52;;;;;;;;;;;16.00;99.90;;;;;;5014388;28;20473;-81
2022/10/15 07:12:20;;;;;;;;;;;16.00;99.90;;;;;;5014136;28;19964;-81
2022/10/15 07:14:46;;;;;;;;;;;16.10;99.90;;;;;;4995083;28;19914;-80
2022/10/15 07:17:11;;;;;;;;;;;16.20;99.90;;;;;;4998377;28;20083;-86
2022/10/15 07:19:37;;;;;;;;;;;16.20;99.90;;;;;;5014357;28;19941;-86
2022/10/15 07:22:02;;;;;;;;;;;16.30;99.90;;;;;;5016271;28;19952;-84
2022/10/15 07:24:28;;;;;;;;;;;16.30;99.90;;;;;;5010972;28;20462;-86
2022/10/15 07:26:53;;;;;;;;;;;16.40;99.90;;;;;;5005344;28;19914;-86
2022/10/15 07:29:19;;;;;;;;;;;16.40;99.90;;;;;;5031079;28;20367;-85
2022/10/15 07:31:45;;;;;;;;;;;16.40;99.90;;;;;;5028974;28;19916;-86
2022/10/15 07:34:10;;;;;;;;;;;16.40;99.90;;;;;;5032351;28;19917;-82
2022/10/15 07:36:36;;;;;;;;;;;16.40;99.90;;;;;;5034312;28;19910;-82
2022/10/15 07:39:02;;;;;;;;;;;16.40;99.90;;;;;;5033124;28;19919;-85
2022/10/15 07:41:29;;;;;;;;;;;16.40;99.90;;;;;;5032098;28;19918;-83
2022/10/15 07:43:54;;;;;;;;;;;16.50;99.90;;;;;;5016066;28;19913;-84
2022/10/15 07:46:20;;;;;;;;;;;16.60;99.90;;;;;;5027741;28;20119;-84
2022/10/15 07:48:45;;;;;;;;;;;16.70;99.90;;;;;;5032703;28;19916;-82
2022/10/15 07:51:11;;;;;;;;;;;16.80;99.90;;;;;;5009579;28;19917;-82
2022/10/15 07:53:36;;;;;;;;;;;16.80;99.90;;;;;;4995207;28;19910;-83
2022/10/15 07:56:05;;;;;;;;;;;16.80;99.90;;;;;;5004916;28;19918;-82
2022/10/15 07:58:33;;;;;;;;;;;16.80;99.90;;;;;;5031413;28;19915;-83
2022/10/15 08:01:02;;;;;;;;;;;16.80;99.90;;;;;;5014116;28;19947;-84
2022/10/15 08:03:28;;;;;;;;;;;16.80;99.90;;;;;;5023109;28;19910;-84
2022/10/15 08:05:54;;;;;;;;;;;16.80;99.90;;;;;;5020135;28;19910;-80
2022/10/15 08:08:20;;;;;;;;;;;16.80;99.90;;;;;;5023641;28;19924;-83
2022/10/15 08:10:46;;;;;;;;;;;16.80;99.90;;;;;;5035877;28;19913;-84
2022/10/15 08:13:12;;;;;;;;;;;16.80;99.90;;;;;;5029221;28;19979;-83
2022/10/15 08:15:38;;;;;;;;;;;16.80;99.90;;;;;;5032324;28;20274;-81
2022/10/15 08:18:04;;;;;;;;;;;16.90;99.90;;;;;;5031967;28;19921;-84
2022/10/15 08:20:29;;;;;;;;;;;17.00;99.90;;;;;;5033985;28;20548;-82
2022/10/15 08:22:55;;;;;;;;;;;17.10;99.90;;;;;;5003958;28;19964;-84
2022/10/15 08:25:20;;;;;;;;;;;17.20;99.90;;;;;;4995779;28;19922;-83
2022/10/15 08:27:46;;;;;;;;;;;17.30;99.90;;;;;;4994797;28;20291;-84
2022/10/15 08:30:11;;;;;;;;;;;17.40;99.90;;;;;;4994679;28;19967;-84
2022/10/15 08:32:37;;;;;;;;;;;17.60;99.90;;;;;;4995035;28;19910;-83
2022/10/15 08:35:02;;;;;;;;;;;17.70;99.90;;;;;;4995901;28;20406;-83
2022/10/15 08:37:28;;;;;;;;;;;17.70;99.90;;;;;;4995197;28;19917;-84
2022/10/15 08:39:53;;;;;;;;;;;17.80;99.90;;;;;;4995299;28;19932;-83
2022/10/15 08:42:20;;;;;;;;;;;17.90;99.90;;;;;;4997457;28;20008;-80
2022/10/15 08:44:52;;;;;;;;;;;18.00;99.90;;;;;;5045053;28;19913;-79
2022/10/15 08:47:35;;;;;;;;;;;17.90;99.90;;;;;;5018431;28;19914;-80
2022/10/15 08:50:29;;;;;;;;;;;18.00;99.90;;;;;;5019205;28;19910;-80
2022/10/15 08:52:56;;;;;;;;;;;18.00;99.90;;;;;;5018640;28;19920;-80
2022/10/15 08:55:22;;;;;;;;;;;18.10;99.90;;;;;;5018704;28;19992;-81
2022/10/15 08:57:53;;;;;;;;;;;18.10;99.90;;;;;;5018413;28;20048;-79
2022/10/15 09:00:20;;;;;;;;;;;18.10;99.90;;;;;;5020717;28;19910;-81
2022/10/15 09:02:49;;;;;;;;;;;18.10;99.90;;;;;;5019535;28;19914;-81
2022/10/15 09:05:25;;;;;;;;;;;18.10;99.90;;;;;;5033834;28;19913;-80
2022/10/15 09:08:09;;;;;;;;;;;18.20;99.90;;;;;;5019739;28;19932;-80
2022/10/15 09:10:37;;;;;;;;;;;18.20;99.90;;;;;;5035414;28;19914;-81
2022/10/15 09:13:08;;;;;;;;;;;18.30;99.90;;;;;;5019319;28;19916;-81
2022/10/15 09:15:38;;;;;;;;;;;18.30;99.90;;;;;;5034965;28;19932;-81
2022/10/15 09:18:04;;;;;;;;;;;18.40;99.90;;;;;;5035874;28;20423;-81
2022/10/15 09:20:34;;;;;;;;;;;18.60;99.90;;;;;;5035113;28;20287;-81
2022/10/15 09:23:00;;;;;;;;;;;18.60;99.90;;;;;;5035498;28;19910;-80
2022/10/15 09:25:30;;;;;;;;;;;18.70;99.90;;;;;;5035792;28;19947;-82
2022/10/15 09:28:00;;;;;;;;;;;18.90;99.90;;;;;;5035494;28;19909;-80
2022/10/15 09:30:33;;;;;;;;;;;19.20;99.90;;;;;;5035279;28;19916;-81
2022/10/15 09:33:07;;;;;;;;;;;19.30;99.90;;;;;;5021034;28;19909;-81
2022/10/15 09:35:32;;;;;;;;;;;19.50;99.90;;;;;;5035264;28;20367;-81
2022/10/15 09:38:16;;;;;;;;;;;19.70;99.90;;;;;;5021121;28;19997;-82
2022/10/15 09:40:59;;;;;;;;;;;19.90;99.90;;;;;;5019468;28;19909;-81
2022/10/15 09:43:30;;;;;;;;;;;20.00;99.90;;;;;;5019725;28;19910;-80
2022/10/15 09:45:56;;;;;;;;;;;20.20;99.90;;;;;;5035250;28;19909;-81
2022/10/15 09:48:22;;;;;;;;;;;20.30;99.90;;;;;;5020227;28;19910;-81
2022/10/15 09:50:57;;;;;;;;;;;20.30;99.90;;;;;;5020913;28;20388;-81
2022/10/15 09:53:36;;;;;;;;;;;20.30;99.90;;;;;;5034534;28;20008;-81
2022/10/15 09:56:02;;;;;;;;;;;20.30;99.90;;;;;;5034142;28;19913;-81
2022/10/15 09:58:37;;;;;;;;;;;20.30;99.90;;;;;;5019735;28;19956;-81
2022/10/15 10:01:04;;;;;;;;;;;20.40;99.90;;;;;;5020968;28;20032;-80
2022/10/15 10:03:31;;;;;;;;;;;20.30;99.90;;;;;;5019415;28;19916;-82
2022/10/15 10:05:58;;;;;;;;;;;20.10;99.90;;;;;;5034186;28;20299;-82
2022/10/15 10:08:26;;;;;;;;;;;19.70;99.90;;;;;;5035403;28;19980;-80
2022/10/15 10:10:53;;;;;;;;;;;19.40;99.90;;;;;;5020242;28;20290;-81
2022/10/15 10:13:24;;;;;;;;;;;19.20;99.90;;;;;;5020413;28;19909;-80
2022/10/15 10:15:51;;;;;;;;;;;19.30;99.90;;;;;;5035599;28;19956;-80
2022/10/15 10:18:24;;;;;;;;;;;19.80;99.90;;;;;;5034871;28;19909;-82
2022/10/15 10:20:57;;;;;;;;;;;19.90;99.90;;;;;;5035128;28;20283;-82
2022/10/15 10:23:24;;;;;;;;;;;20.00;99.90;;;;;;5017517;28;20048;-85
2022/10/15 10:25:50;;;;;;;;;;;20.20;99.90;;;;;;5018255;28;20334;-83
2022/10/15 10:28:19;;;;;;;;;;;20.20;99.90;;;;;;5016380;28;19933;-83
2022/10/15 10:30:50;;;;;;;;;;;20.50;99.90;;;;;;5033271;28;19913;-83
2022/10/15 10:33:20;;;;;;;;;;;20.90;99.90;;;;;;5032619;28;19948;-84
2022/10/15 10:35:48;;;;;;;;;;;20.90;99.90;;;;;;5033661;28;20406;-84
2022/10/15 10:38:21;;;;;;;;;;;20.90;99.90;;;;;;5017807;28;19913;-83
2022/10/15 10:40:51;;;;;;;;;;;21.10;99.90;;;;;;5032793;28;19909;-84
2022/10/15 10:43:16;;;;;;;;;;;21.10;99.90;;;;;;5033245;28;19916;-82
2022/10/15 10:45:56;;;;;;;;;;;20.80;99.90;;;;;;5033394;28;19909;-82
2022/10/15 10:48:27;;;;;;;;;;;20.70;99.90;;;;;;5033277;28;19948;-83
2022/10/15 10:51:21;;;;;;;;;;;20.50;99.90;;;;;;5033592;28;20000;-82
2022/10/15 10:53:49;;;;;;;;;;;20.40;99.90;;;;;;5020893;28;19909;-82
2022/10/15 10:56:16;;;;;;;;;;;20.30;99.90;;;;;;5033300;28;19914;-81
2022/10/15 10:58:42;;;;;;;;;;;20.10;99.90;;;;;;5032737;28;19910;-82
2022/10/15 11:01:12;;;;;;;;;;;20.10;99.90;;;;;;5017161;28;19968;-82
2022/10/15 11:03:38;;;;;;;;;;;19.90;99.90;;;;;;5032921;28;20011;-81
2022/10/15 11:06:19;;;;;;;;;;;19.80;99.90;;;;;;5017863;28;19990;-82
2022/10/15 11:08:44;;;;;;;;;;;19.80;99.90;;;;;;5032563;28;19960;-81
2022/10/15 11:11:20;;;;;;;;;;;19.80;99.90;;;;;;5017398;28;19909;-81
2022/10/15 11:13:58;;;;;;;;;;;19.90;99.90;;;;;;5015808;28;19916;-82
2022/10/15 11:16:27;;;;;;;;;;;20.00;99.90;;;;;;5031677;28;19967;-81
2022/10/15 11:18:52;;;;;;;;;;;20.00;99.90;;;;;;5031844;28;20507;-82
2022/10/15 11:21:36;;;;;;;;;;;20.10;99.90;;;;;;5018158;28;19921;-81
2022/10/15 11:24:07;;;;;;;;;;;20.10;99.90;;;;;;5033271;28;19921;-82
2022/10/15 11:26:35;;;;;;;;;;;20.20;99.90;;;;;;5018156;28;19910;-82
2022/10/15 11:29:19;;;;;;;;;;;20.10;99.90;;;;;;5018935;28;19933;-82
2022/10/15 11:31:47;;;;;;;;;;;20.20;99.90;;;;;;5023198;28;19917;-82
2022/10/15 11:34:28;;;;;;;;;;;20.20;99.90;;;;;;5022583;28;20356;-78
2022/10/15 11:36:53;;;;;;;;;;;20.30;99.90;;;;;;5038138;28;19964;-81
2022/10/15 11:39:42;;;;;;;;;;;20.20;99.90;;;;;;5022668;28;19910;-79
2022/10/15 11:42:15;;;;;;;;;;;20.30;99.90;;;;;;5029727;28;19936;-79
2022/10/15 11:44:50;;;;;;;;;;;20.30;99.90;;;;;;5036775;28;20008;-82
2022/10/15 11:47:25;;;;;;;;;;;20.50;99.90;;;;;;5023033;28;20351;-81
2022/10/15 11:50:04;;;;;;;;;;;20.60;99.90;;;;;;5038945;28;19909;-81
2022/10/15 11:52:36;;;;;;;;;;;20.70;99.90;;;;;;5022453;28;19910;-81
2022/10/15 11:55:11;;;;;;;;;;;20.70;99.90;;;;;;5022982;28;19971;-80
2022/10/15 11:57:39;;;;;;;;;;;20.60;99.90;;;;;;5037243;28;19910;-82
2022/10/15 12:00:24;;;;;;;;;;;20.60;99.90;;;;;;5037905;28;20272;-81
2022/10/15 12:02:51;;;;;;;;;;;20.60;99.90;;;;;;5011976;28;19913;-80
2022/10/15 12:05:32;;;;;;;;;;;20.70;99.90;;;;;;5023631;28;19916;-81
2022/10/15 12:07:58;;;;;;;;;;;20.80;99.90;;;;;;5022888;28;20330;-81
2022/10/15 12:10:26;;;;;;;;;;;20.80;99.90;;;;;;5024271;28;19920;-81
2022/10/15 12:12:55;;;;;;;;;;;20.80;99.90;;;;;;5023534;28;20059;-81
2022/10/15 12:15:39;;;;;;;;;;;20.80;99.90;;;;;;5039911;28;19916;-80
2022/10/15 12:18:10;;;;;;;;;;;20.80;99.90;;;;;;5024263;28;19917;-80
2022/10/15 12:20:39;;;;;;;;;;;20.80;99.90;;;;;;5040239;28;19916;-82
2022/10/15 12:23:04;;;;;;;;;;;20.80;99.90;;;;;;5024567;28;19909;-81
2022/10/15 12:25:33;;;;;;;;;;;20.80;99.90;;;;;;5025443;28;19963;-80
2022/10/15 12:28:03;;;;;;;;;;;20.70;99.90;;;;;;5021404;28;19949;-80
2022/10/15 12:30:33;;;;;;;;;;;20.80;99.90;;;;;;5034220;28;20347;-81
2022/10/15 12:32:59;;;;;;;;;;;20.80;99.90;;;;;;5033301;28;20049;-81
2022/10/15 12:35:34;;;;;;;;;;;20.70;99.90;;;;;;5031503;28;19913;-80
2022/10/15 12:38:20;;;;;;;;;;;20.80;99.90;;;;;;5074308;22;20385;-80
2022/10/15 12:40:53;;;;;;;;;;;20.80;99.90;;;;;;5074576;28;19908;-79
2022/10/15 12:43:20;;;;;;;;;;;20.90;99.90;;;;;;5056792;28;19915;-80
2022/10/15 12:45:53;;;;;;;;;;;21.00;99.90;;;;;;5074918;28;19915;-80
2022/10/15 12:48:33;;;;;;;;;;;21.10;99.90;;;;;;5057153;28;19908;-80
2022/10/15 12:51:17;;;;;;;;;;;21.20;99.90;;;;;;5074826;28;19912;-79
2022/10/15 12:53:44;;;;;;;;;;;21.40;99.90;;;;;;5056553;28;19909;-79
2022/10/15 12:56:09;;;;;;;;;;;21.50;99.90;;;;;;5074794;28;19916;-80
2022/10/15 12:58:36;;;;;;;;;;;21.60;99.90;;;;;;5056791;28;19909;-79
2022/10/15 13:01:08;;;;;;;;;;;21.60;99.90;;;;;;5056945;28;19913;-80
2022/10/15 13:03:51;;;;;;;;;;;21.70;99.90;;;;;;5056831;28;19908;-80
2022/10/15 13:06:19;;;;;;;;;;;21.70;99.90;;;;;;5056787;28;20378;-80
2022/10/15 13:09:04;;;;;;;;;;;21.90;99.90;;;;;;5074457;28;20452;-80
2022/10/15 13:11:31;;;;;;;;;;;22.10;99.90;;;;;;5056641;28;19931;-81
2022/10/15 13:14:16;;;;;;;;;;;22.20;99.90;;;;;;5049888;28;20369;-81
2022/10/15 13:16:43;;;;;;;;;;;22.20;99.90;;;;;;5051706;28;19951;-81
2022/10/15 13:19:16;;;;;;;;;;;22.20;99.90;;;;;;5055884;28;20388;-81
2022/10/15 13:21:58;;;;;;;;;;;22.10;99.90;;;;;;5055584;28;19912;-81
2022/10/15 13:24:27;;;;;;;;;;;22.40;99.90;;;;;;5055691;28;19908;-80
2022/10/15 13:26:54;;;;;;;;;;;22.40;99.90;;;;;;5072603;28;19959;-81
2022/10/15 13:29:24;;;;;;;;;;;22.70;99.90;;;;;;5055623;28;19995;-81
2022/10/15 13:31:50;;;;;;;;;;;22.90;99.90;;;;;;5055555;28;19912;-81
2022/10/15 13:34:19;;;;;;;;;;;23.00;99.90;;;;;;5055142;28;19992;-81
2022/10/15 13:36:44;;;;;;;;;;;22.80;99.90;;;;;;5055415;28;19908;-81
2022/10/15 13:39:21;;;;;;;;;;;22.80;99.90;;;;;;5055410;28;19916;-81
2022/10/15 13:41:47;;;;;;;;;;;22.50;99.90;;;;;;5073314;28;20007;-82
2022/10/15 13:44:23;;;;;;;;;;;22.50;99.90;;;;;;5055338;28;20047;-83
2022/10/15 13:46:49;;;;;;;;;;;22.40;99.90;;;;;;5055131;28;19920;-84
2022/10/15 13:49:16;;;;;;;;;;;22.50;99.90;;;;;;5055534;28;19919;-83
2022/10/15 13:51:43;;;;;;;;;;;22.70;99.90;;;;;;5054815;28;20289;-83
2022/10/15 13:54:11;;;;;;;;;;;22.60;99.90;;;;;;5054994;28;19913;-83
2022/10/15 13:56:37;;;;;;;;;;;22.70;99.90;;;;;;5055265;28;19958;-84
2022/10/15 13:59:03;;;;;;;;;;;22.70;99.90;;;;;;5055034;28;19909;-83
2022/10/15 14:01:29;;;;;;;;;;;22.60;99.90;;;;;;5054973;28;19920;-84
2022/10/15 14:03:56;;;;;;;;;;;22.40;99.90;;;;;;5045996;28;19909;-84
2022/10/15 14:06:21;;;;;;;;;;;22.40;99.90;;;;;;5051536;28;20007;-81
2022/10/15 14:08:48;;;;;;;;;;;22.10;99.90;;;;;;5073091;28;19958;-81
2022/10/15 14:11:14;;;;;;;;;;;22.00;99.90;;;;;;5055079;28;19913;-81
2022/10/15 14:13:44;;;;;;;;;;;22.10;99.90;;;;;;5055076;28;20004;-81
2022/10/15 14:16:30;;;;;;;;;;;22.60;99.90;;;;;;5054959;28;20312;-82
2022/10/15 14:18:57;;;;;;;;;;;22.70;99.90;;;;;;5054537;28;19909;-81
2022/10/15 14:21:30;;;;;;;;;;;22.60;99.90;;;;;;5056110;28;19975;-81
2022/10/15 14:24:13;;;;;;;;;;;22.40;99.90;;;;;;5034674;28;20031;-81